02 Jul 2020 16:15 UTC 2020184+16:15 UTC

Overview Datums Bench Marks Data Query Site Visit Daily QC Messages Attributes

148: MANERR Station #4 (Aransas Bay)
Aransas Bay, Texas
27° 58' 47" N   97° 1' 43" W
MANER4
Mission Aransas National Estaurine Research Reserve (MANERR) MANERR

Station Information

MANERR Station #4 (Aransas Bay)
MANERR Station #4 (Aransas Bay)
more pictures
 
Station Name:MANERR Station #4 (Aransas Bay)
DNR ID:148
Location:27° 58' 47" N, 97° 1' 43" W
Aransas Bay, Texas

Water Level Forecasts

Latest Observations

Series Metric English Marine Observed at
Water Temperature 29.4 °C 84.9 °F 84.9 °F Jul 02 11:00 CDT
00h07m ago
Salinity 30.700 psu 30.700 psu 30.700 psu Jul 02 11:00 CDT
00h07m ago
pH 8.09 pH 8.09 pH 8.09 pH Jul 02 11:00 CDT
00h07m ago
Turbidity 13 ntu 13 ntu 13 ntu Jul 02 11:00 CDT
00h07m ago
Dissolved Oxygen 5.88 mg/L 0.000367 lb/ft3 0.000367 lb/ft3 Jul 02 11:00 CDT
00h07m ago
Chlorophyll Concentration 6.56 mcg/L 0.000000 lb/ft3 0.000000 lb/ft3 Jul 02 11:00 CDT
00h07m ago

Maps

MANERR Station #4 (Aransas Bay)
All Stations in Area
Entire Network
 

Recent Observations

Date/Time Water
Temp (°F)
Sal (psu) pH (pH) Turb (ntu) DO (lb/ft3) chl (lb/ft3)
Jul 02 11:00 CDT 84.9 30.700 8.09 13 0.000367 0.000000
Jul 02 10:00 CDT 84.9 30.600 8.09 14 0.000365 0.000000
Jul 02 09:00 CDT 84.9 30.600 8.09 10 0.000366 0.000000
Jul 02 08:00 CDT 84.7 28.000 8.09 12 0.000377 0.000000
Jul 02 07:00 CDT 84.9 30.700 8.10 13 0.000375 0.000000
Jul 02 06:00 CDT 84.9 30.900 8.10 12 0.000376 0.000000
Jul 02 05:00 CDT 84.9 31.000 8.10 13 0.000380 0.000000
Jul 02 04:00 CDT 85.1 31.200 8.10 15 0.000383 0.000000
Jul 02 03:00 CDT 85.1 31.300 8.10 15 0.000387 0.000000
Jul 02 02:00 CDT 85.3 31.300 8.10 15 0.000388 0.000000
Jul 02 01:00 CDT 85.5 31.300 8.11 14 0.000395 0.000000
Jul 02 00:00 CDT 85.5 31.200 8.11 18 0.000402 0.000000
Jul 01 23:00 CDT 85.6 31.100 8.12 16 0.000410 0.000000
Jul 01 22:00 CDT 85.6 30.900 8.12 20 0.000416 0.000001
Jul 01 21:00 CDT 85.8 30.700 8.13 22 0.000425 0.000001
Jul 01 20:00 CDT 86.0 30.500 8.13 26 0.000430 0.000001
Jul 01 19:00 CDT 86.0 30.600 8.13 23 0.000433 0.000001
Jul 01 18:00 CDT 86.2 30.500 8.13 25 0.000431 0.000001
Jul 01 17:00 CDT 86.0 30.500 8.13 20 0.000425 0.000001
Jul 01 16:00 CDT 85.5 30.500 8.11 26 0.000407 0.000001
Jul 01 15:00 CDT 85.3 30.400 8.10 23 0.000403 0.000001
Jul 01 14:00 CDT 85.1 30.300 8.11 16 0.000406 0.000000
Jul 01 13:00 CDT 84.7 27.000 8.09 29 0.000398 0.000001
Jul 01 12:00 CDT 84.7 30.400 8.10 14 0.000400 0.000000
Jul 01 11:00 CDT 84.6 30.400 8.09 25 0.000388 0.000001

Historical Data Availability